sensor_id;sensor_type;location;lat;lon;timestamp;P1;durP1;ratioP1;P2;durP2;ratioP2
9254;SDS011;4663;49.120;9.730;2023-10-19T00:01:06;48.33;;;19.75;;
9254;SDS011;4663;49.120;9.730;2023-10-19T00:03:35;31.10;;;20.07;;
9254;SDS011;4663;49.120;9.730;2023-10-19T00:06:00;30.60;;;19.17;;
9254;SDS011;4663;49.120;9.730;2023-10-19T00:08:26;27.70;;;19.03;;
9254;SDS011;4663;49.120;9.730;2023-10-19T00:11:01;29.60;;;19.93;;
9254;SDS011;4663;49.120;9.730;2023-10-19T00:13:33;33.97;;;19.80;;
9254;SDS011;4663;49.120;9.730;2023-10-19T00:16:09;34.35;;;18.48;;
9254;SDS011;4663;49.120;9.730;2023-10-19T00:18:41;37.17;;;18.57;;
9254;SDS011;4663;49.120;9.730;2023-10-19T00:21:08;28.50;;;18.25;;
9254;SDS011;4663;49.120;9.730;2023-10-19T00:23:45;29.17;;;19.47;;
9254;SDS011;4663;49.120;9.730;2023-10-19T00:26:15;33.20;;;19.65;;
9254;SDS011;4663;49.120;9.730;2023-10-19T00:28:44;32.23;;;19.40;;
9254;SDS011;4663;49.120;9.730;2023-10-19T00:31:11;28.13;;;18.70;;
9254;SDS011;4663;49.120;9.730;2023-10-19T00:33:37;35.03;;;18.95;;
9254;SDS011;4663;49.120;9.730;2023-10-19T00:36:08;31.35;;;19.92;;
9254;SDS011;4663;49.120;9.730;2023-10-19T00:38:38;29.77;;;18.67;;
9254;SDS011;4663;49.120;9.730;2023-10-19T00:41:08;40.00;;;19.95;;
9254;SDS011;4663;49.120;9.730;2023-10-19T00:43:35;35.67;;;19.67;;
9254;SDS011;4663;49.120;9.730;2023-10-19T00:46:13;33.50;;;19.25;;
9254;SDS011;4663;49.120;9.730;2023-10-19T00:48:49;29.05;;;18.00;;
9254;SDS011;4663;49.120;9.730;2023-10-19T00:51:22;30.23;;;19.88;;
9254;SDS011;4663;49.120;9.730;2023-10-19T00:53:55;29.53;;;18.20;;
9254;SDS011;4663;49.120;9.730;2023-10-19T00:56:36;27.52;;;18.55;;
9254;SDS011;4663;49.120;9.730;2023-10-19T00:59:02;30.80;;;19.35;;
9254;SDS011;4663;49.120;9.730;2023-10-19T01:01:44;30.88;;;18.75;;
9254;SDS011;4663;49.120;9.730;2023-10-19T01:04:13;28.38;;;19.17;;
9254;SDS011;4663;49.120;9.730;2023-10-19T01:06:41;29.73;;;19.03;;
9254;SDS011;4663;49.120;9.730;2023-10-19T01:09:23;33.70;;;18.60;;
9254;SDS011;4663;49.120;9.730;2023-10-19T01:11:52;30.48;;;18.92;;
9254;SDS011;4663;49.120;9.730;2023-10-19T01:14:18;35.90;;;18.63;;
9254;SDS011;4663;49.120;9.730;2023-10-19T01:16:46;34.65;;;18.55;;
9254;SDS011;4663;49.120;9.730;2023-10-19T01:19:13;25.33;;;17.20;;
9254;SDS011;4663;49.120;9.730;2023-10-19T01:21:43;31.20;;;17.13;;
9254;SDS011;4663;49.120;9.730;2023-10-19T01:24:11;29.23;;;17.95;;
9254;SDS011;4663;49.120;9.730;2023-10-19T01:26:41;31.95;;;18.52;;
9254;SDS011;4663;49.120;9.730;2023-10-19T01:29:07;33.03;;;18.92;;
9254;SDS011;4663;49.120;9.730;2023-10-19T01:31:41;28.10;;;18.38;;
9254;SDS011;4663;49.120;9.730;2023-10-19T01:34:29;25.53;;;17.93;;
9254;SDS011;4663;49.120;9.730;2023-10-19T01:36:55;29.27;;;17.93;;
9254;SDS011;4663;49.120;9.730;2023-10-19T01:39:21;29.93;;;18.63;;
9254;SDS011;4663;49.120;9.730;2023-10-19T01:41:46;29.13;;;18.87;;
9254;SDS011;4663;49.120;9.730;2023-10-19T01:44:15;36.08;;;18.25;;
9254;SDS011;4663;49.120;9.730;2023-10-19T01:46:41;31.03;;;18.77;;
9254;SDS011;4663;49.120;9.730;2023-10-19T01:49:09;31.53;;;18.47;;
9254;SDS011;4663;49.120;9.730;2023-10-19T01:51:34;30.87;;;18.43;;
9254;SDS011;4663;49.120;9.730;2023-10-19T01:54:03;28.83;;;18.90;;
9254;SDS011;4663;49.120;9.730;2023-10-19T01:56:30;30.07;;;18.57;;
9254;SDS011;4663;49.120;9.730;2023-10-19T01:58:55;31.97;;;18.83;;
9254;SDS011;4663;49.120;9.730;2023-10-19T02:01:22;32.00;;;19.40;;
9254;SDS011;4663;49.120;9.730;2023-10-19T02:03:50;29.67;;;18.87;;
9254;SDS011;4663;49.120;9.730;2023-10-19T02:06:20;27.98;;;17.55;;
9254;SDS011;4663;49.120;9.730;2023-10-19T02:08:50;30.83;;;20.15;;
9254;SDS011;4663;49.120;9.730;2023-10-19T02:11:22;28.17;;;17.93;;
9254;SDS011;4663;49.120;9.730;2023-10-19T02:13:49;30.97;;;18.83;;
9254;SDS011;4663;49.120;9.730;2023-10-19T02:16:17;39.83;;;18.80;;
9254;SDS011;4663;49.120;9.730;2023-10-19T02:18:47;31.50;;;17.33;;
9254;SDS011;4663;49.120;9.730;2023-10-19T02:21:13;34.53;;;17.45;;
9254;SDS011;4663;49.120;9.730;2023-10-19T02:23:39;27.30;;;16.08;;
9254;SDS011;4663;49.120;9.730;2023-10-19T02:26:07;31.30;;;17.38;;
9254;SDS011;4663;49.120;9.730;2023-10-19T02:28:38;71.82;;;19.45;;
9254;SDS011;4663;49.120;9.730;2023-10-19T02:31:04;26.85;;;17.88;;
9254;SDS011;4663;49.120;9.730;2023-10-19T02:33:41;30.27;;;18.90;;
9254;SDS011;4663;49.120;9.730;2023-10-19T02:36:16;34.47;;;18.40;;
9254;SDS011;4663;49.120;9.730;2023-10-19T02:38:44;30.67;;;18.13;;
9254;SDS011;4663;49.120;9.730;2023-10-19T02:41:16;32.22;;;18.48;;
9254;SDS011;4663;49.120;9.730;2023-10-19T02:43:43;35.40;;;18.67;;
9254;SDS011;4663;49.120;9.730;2023-10-19T02:46:15;31.92;;;18.52;;
9254;SDS011;4663;49.120;9.730;2023-10-19T02:48:43;32.15;;;18.98;;
9254;SDS011;4663;49.120;9.730;2023-10-19T02:51:14;37.88;;;20.58;;
9254;SDS011;4663;49.120;9.730;2023-10-19T02:53:40;32.97;;;19.00;;
9254;SDS011;4663;49.120;9.730;2023-10-19T02:56:13;31.90;;;19.63;;
9254;SDS011;4663;49.120;9.730;2023-10-19T02:58:43;30.92;;;18.42;;
9254;SDS011;4663;49.120;9.730;2023-10-19T03:01:17;42.58;;;18.23;;
9254;SDS011;4663;49.120;9.730;2023-10-19T03:03:52;33.83;;;18.83;;
9254;SDS011;4663;49.120;9.730;2023-10-19T03:06:21;32.20;;;17.35;;
9254;SDS011;4663;49.120;9.730;2023-10-19T03:08:50;30.15;;;18.63;;
9254;SDS011;4663;49.120;9.730;2023-10-19T03:11:22;36.90;;;18.80;;
9254;SDS011;4663;49.120;9.730;2023-10-19T03:13:48;33.30;;;18.13;;
9254;SDS011;4663;49.120;9.730;2023-10-19T03:16:15;38.45;;;18.38;;
9254;SDS011;4663;49.120;9.730;2023-10-19T03:18:42;31.53;;;18.00;;
9254;SDS011;4663;49.120;9.730;2023-10-19T03:21:08;30.40;;;18.43;;
9254;SDS011;4663;49.120;9.730;2023-10-19T03:23:33;30.83;;;18.40;;
9254;SDS011;4663;49.120;9.730;2023-10-19T03:25:59;30.75;;;17.73;;
9254;SDS011;4663;49.120;9.730;2023-10-19T03:28:44;26.93;;;16.80;;
9254;SDS011;4663;49.120;9.730;2023-10-19T03:31:10;26.50;;;16.50;;
9254;SDS011;4663;49.120;9.730;2023-10-19T03:33:42;29.42;;;17.05;;
9254;SDS011;4663;49.120;9.730;2023-10-19T03:36:09;27.70;;;17.55;;
9254;SDS011;4663;49.120;9.730;2023-10-19T03:38:38;35.83;;;16.40;;
9254;SDS011;4663;49.120;9.730;2023-10-19T03:41:05;39.08;;;16.63;;
9254;SDS011;4663;49.120;9.730;2023-10-19T03:43:33;24.70;;;16.02;;
9254;SDS011;4663;49.120;9.730;2023-10-19T03:46:01;32.88;;;17.00;;
9254;SDS011;4663;49.120;9.730;2023-10-19T03:48:31;31.13;;;15.50;;
9254;SDS011;4663;49.120;9.730;2023-10-19T03:51:02;27.63;;;17.10;;
9254;SDS011;4663;49.120;9.730;2023-10-19T03:53:28;25.35;;;15.88;;
9254;SDS011;4663;49.120;9.730;2023-10-19T03:55:55;31.35;;;15.55;;
9254;SDS011;4663;49.120;9.730;2023-10-19T03:58:21;26.08;;;15.43;;
9254;SDS011;4663;49.120;9.730;2023-10-19T04:00:47;28.48;;;15.90;;
9254;SDS011;4663;49.120;9.730;2023-10-19T04:03:14;33.00;;;16.23;;
9254;SDS011;4663;49.120;9.730;2023-10-19T04:05:42;21.48;;;14.57;;
9254;SDS011;4663;49.120;9.730;2023-10-19T04:08:12;36.10;;;14.90;;
9254;SDS011;4663;49.120;9.730;2023-10-19T04:10:40;35.13;;;16.45;;
9254;SDS011;4663;49.120;9.730;2023-10-19T04:13:26;21.80;;;13.75;;
9254;SDS011;4663;49.120;9.730;2023-10-19T04:15:51;21.70;;;13.83;;
9254;SDS011;4663;49.120;9.730;2023-10-19T04:18:18;20.45;;;14.48;;
9254;SDS011;4663;49.120;9.730;2023-10-19T04:20:43;22.27;;;14.02;;
9254;SDS011;4663;49.120;9.730;2023-10-19T04:23:09;28.50;;;15.05;;
9254;SDS011;4663;49.120;9.730;2023-10-19T04:25:40;26.90;;;15.27;;
9254;SDS011;4663;49.120;9.730;2023-10-19T04:28:05;23.65;;;14.00;;
9254;SDS011;4663;49.120;9.730;2023-10-19T04:30:31;23.90;;;14.85;;
9254;SDS011;4663;49.120;9.730;2023-10-19T04:32:58;22.60;;;13.65;;
9254;SDS011;4663;49.120;9.730;2023-10-19T04:35:25;20.48;;;13.57;;
9254;SDS011;4663;49.120;9.730;2023-10-19T04:37:55;19.77;;;13.10;;
9254;SDS011;4663;49.120;9.730;2023-10-19T04:40:22;26.08;;;14.15;;
9254;SDS011;4663;49.120;9.730;2023-10-19T04:42:48;22.90;;;13.83;;
9254;SDS011;4663;49.120;9.730;2023-10-19T04:45:15;18.48;;;12.52;;
9254;SDS011;4663;49.120;9.730;2023-10-19T04:47:40;19.73;;;12.43;;
9254;SDS011;4663;49.120;9.730;2023-10-19T04:50:06;22.02;;;13.60;;
9254;SDS011;4663;49.120;9.730;2023-10-19T04:52:32;19.83;;;12.90;;
9254;SDS011;4663;49.120;9.730;2023-10-19T04:54:58;20.27;;;13.13;;
9254;SDS011;4663;49.120;9.730;2023-10-19T04:57:24;27.97;;;12.97;;
9254;SDS011;4663;49.120;9.730;2023-10-19T04:59:51;21.30;;;13.50;;
9254;SDS011;4663;49.120;9.730;2023-10-19T05:02:16;23.70;;;14.32;;
9254;SDS011;4663;49.120;9.730;2023-10-19T05:04:42;20.90;;;14.27;;
9254;SDS011;4663;49.120;9.730;2023-10-19T05:07:08;24.67;;;13.83;;
9254;SDS011;4663;49.120;9.730;2023-10-19T05:09:37;16.65;;;11.60;;
9254;SDS011;4663;49.120;9.730;2023-10-19T05:12:05;27.23;;;12.50;;
9254;SDS011;4663;49.120;9.730;2023-10-19T05:14:38;23.73;;;14.10;;
9254;SDS011;4663;49.120;9.730;2023-10-19T05:17:04;24.92;;;15.02;;
9254;SDS011;4663;49.120;9.730;2023-10-19T05:19:30;25.50;;;15.30;;
9254;SDS011;4663;49.120;9.730;2023-10-19T05:21:57;28.40;;;15.53;;
9254;SDS011;4663;49.120;9.730;2023-10-19T05:24:22;27.08;;;16.15;;
9254;SDS011;4663;49.120;9.730;2023-10-19T05:26:48;25.03;;;15.83;;
9254;SDS011;4663;49.120;9.730;2023-10-19T05:29:13;27.33;;;16.13;;
9254;SDS011;4663;49.120;9.730;2023-10-19T05:31:39;22.77;;;14.97;;
9254;SDS011;4663;49.120;9.730;2023-10-19T05:34:04;22.57;;;13.97;;
9254;SDS011;4663;49.120;9.730;2023-10-19T05:36:30;19.40;;;13.77;;
9254;SDS011;4663;49.120;9.730;2023-10-19T05:38:57;23.87;;;13.93;;
9254;SDS011;4663;49.120;9.730;2023-10-19T05:41:23;22.27;;;13.57;;
9254;SDS011;4663;49.120;9.730;2023-10-19T05:43:48;22.93;;;14.57;;
9254;SDS011;4663;49.120;9.730;2023-10-19T05:46:14;24.73;;;12.47;;
9254;SDS011;4663;49.120;9.730;2023-10-19T05:48:43;20.03;;;12.80;;
9254;SDS011;4663;49.120;9.730;2023-10-19T05:51:10;21.03;;;13.37;;
9254;SDS011;4663;49.120;9.730;2023-10-19T05:53:36;20.13;;;11.93;;
9254;SDS011;4663;49.120;9.730;2023-10-19T05:56:02;32.13;;;13.33;;
9254;SDS011;4663;49.120;9.730;2023-10-19T05:58:27;19.20;;;12.53;;
9254;SDS011;4663;49.120;9.730;2023-10-19T06:00:53;46.13;;;14.17;;
9254;SDS011;4663;49.120;9.730;2023-10-19T06:03:22;34.13;;;13.48;;
9254;SDS011;4663;49.120;9.730;2023-10-19T06:05:48;30.63;;;14.20;;
9254;SDS011;4663;49.120;9.730;2023-10-19T06:08:13;31.58;;;13.93;;
9254;SDS011;4663;49.120;9.730;2023-10-19T06:10:39;15.88;;;12.35;;
9254;SDS011;4663;49.120;9.730;2023-10-19T06:13:04;15.57;;;11.95;;
9254;SDS011;4663;49.120;9.730;2023-10-19T06:15:35;17.40;;;11.02;;
9254;SDS011;4663;49.120;9.730;2023-10-19T06:18:00;12.33;;;10.77;;
9254;SDS011;4663;49.120;9.730;2023-10-19T06:20:26;14.50;;;11.43;;
9254;SDS011;4663;49.120;9.730;2023-10-19T06:25:17;35.13;;;14.18;;
9254;SDS011;4663;49.120;9.730;2023-10-19T06:27:44;124.07;;;17.15;;
9254;SDS011;4663;49.120;9.730;2023-10-19T06:30:11;70.55;;;16.27;;
9254;SDS011;4663;49.120;9.730;2023-10-19T06:32:37;105.63;;;15.60;;
9254;SDS011;4663;49.120;9.730;2023-10-19T06:35:03;209.57;;;20.90;;
9254;SDS011;4663;49.120;9.730;2023-10-19T06:37:28;202.15;;;21.65;;
9254;SDS011;4663;49.120;9.730;2023-10-19T06:39:54;116.57;;;18.70;;
9254;SDS011;4663;49.120;9.730;2023-10-19T06:42:19;102.07;;;18.23;;
9254;SDS011;4663;49.120;9.730;2023-10-19T06:44:46;39.33;;;16.13;;
9254;SDS011;4663;49.120;9.730;2023-10-19T06:47:11;37.23;;;16.30;;
9254;SDS011;4663;49.120;9.730;2023-10-19T06:49:38;33.88;;;16.08;;
9254;SDS011;4663;49.120;9.730;2023-10-19T06:52:04;27.97;;;17.50;;
9254;SDS011;4663;49.120;9.730;2023-10-19T06:54:30;63.97;;;22.02;;
9254;SDS011;4663;49.120;9.730;2023-10-19T06:56:56;80.40;;;21.52;;
9254;SDS011;4663;49.120;9.730;2023-10-19T06:59:24;166.77;;;22.17;;
9254;SDS011;4663;49.120;9.730;2023-10-19T07:01:50;46.77;;;19.37;;
9254;SDS011;4663;49.120;9.730;2023-10-19T07:04:16;45.35;;;17.90;;
9254;SDS011;4663;49.120;9.730;2023-10-19T07:06:41;48.80;;;18.23;;
9254;SDS011;4663;49.120;9.730;2023-10-19T07:09:06;62.97;;;19.60;;
9254;SDS011;4663;49.120;9.730;2023-10-19T07:11:35;172.70;;;22.45;;
9254;SDS011;4663;49.120;9.730;2023-10-19T07:14:00;117.45;;;20.00;;
9254;SDS011;4663;49.120;9.730;2023-10-19T07:16:26;44.38;;;17.85;;
9254;SDS011;4663;49.120;9.730;2023-10-19T07:18:51;21.25;;;15.55;;
9254;SDS011;4663;49.120;9.730;2023-10-19T07:21:18;43.17;;;18.85;;
9254;SDS011;4663;49.120;9.730;2023-10-19T07:23:43;63.70;;;19.55;;
9254;SDS011;4663;49.120;9.730;2023-10-19T07:26:10;113.00;;;24.85;;
9254;SDS011;4663;49.120;9.730;2023-10-19T07:28:38;48.88;;;22.38;;
9254;SDS011;4663;49.120;9.730;2023-10-19T07:31:04;53.83;;;19.55;;
9254;SDS011;4663;49.120;9.730;2023-10-19T07:33:31;37.50;;;20.25;;
9254;SDS011;4663;49.120;9.730;2023-10-19T07:35:59;36.03;;;19.60;;
9254;SDS011;4663;49.120;9.730;2023-10-19T07:38:31;29.88;;;18.00;;
9254;SDS011;4663;49.120;9.730;2023-10-19T07:40:58;165.63;;;22.65;;
9254;SDS011;4663;49.120;9.730;2023-10-19T07:43:23;225.73;;;23.27;;
9254;SDS011;4663;49.120;9.730;2023-10-19T07:45:50;55.53;;;20.35;;
9254;SDS011;4663;49.120;9.730;2023-10-19T07:48:17;37.45;;;19.13;;
9254;SDS011;4663;49.120;9.730;2023-10-19T07:50:42;78.43;;;21.63;;
9254;SDS011;4663;49.120;9.730;2023-10-19T07:53:08;248.65;;;23.92;;
9254;SDS011;4663;49.120;9.730;2023-10-19T07:55:34;66.35;;;20.15;;
9254;SDS011;4663;49.120;9.730;2023-10-19T07:58:00;33.95;;;17.42;;
9254;SDS011;4663;49.120;9.730;2023-10-19T08:00:28;35.63;;;18.13;;
9254;SDS011;4663;49.120;9.730;2023-10-19T08:02:58;24.90;;;16.42;;
9254;SDS011;4663;49.120;9.730;2023-10-19T08:05:24;26.30;;;17.35;;
9254;SDS011;4663;49.120;9.730;2023-10-19T08:07:49;26.33;;;15.98;;
9254;SDS011;4663;49.120;9.730;2023-10-19T08:10:15;29.13;;;17.95;;
9254;SDS011;4663;49.120;9.730;2023-10-19T08:12:43;21.33;;;16.23;;
9254;SDS011;4663;49.120;9.730;2023-10-19T08:15:12;32.78;;;18.50;;
9254;SDS011;4663;49.120;9.730;2023-10-19T08:17:41;32.63;;;19.23;;
9254;SDS011;4663;49.120;9.730;2023-10-19T08:20:08;25.45;;;18.27;;
9254;SDS011;4663;49.120;9.730;2023-10-19T08:22:35;27.88;;;18.02;;
9254;SDS011;4663;49.120;9.730;2023-10-19T08:25:02;24.38;;;16.63;;
9254;SDS011;4663;49.120;9.730;2023-10-19T08:27:29;23.05;;;16.75;;
9254;SDS011;4663;49.120;9.730;2023-10-19T08:29:55;24.23;;;16.70;;
9254;SDS011;4663;49.120;9.730;2023-10-19T08:32:20;25.30;;;16.52;;
9254;SDS011;4663;49.120;9.730;2023-10-19T08:34:46;25.58;;;16.92;;
9254;SDS011;4663;49.120;9.730;2023-10-19T08:37:11;23.52;;;17.17;;
9254;SDS011;4663;49.120;9.730;2023-10-19T08:39:37;24.15;;;17.50;;
9254;SDS011;4663;49.120;9.730;2023-10-19T08:42:03;24.42;;;16.60;;
9254;SDS011;4663;49.120;9.730;2023-10-19T08:44:29;26.05;;;17.13;;
9254;SDS011;4663;49.120;9.730;2023-10-19T08:46:55;22.95;;;16.27;;
9254;SDS011;4663;49.120;9.730;2023-10-19T08:49:22;25.05;;;17.13;;
9254;SDS011;4663;49.120;9.730;2023-10-19T08:51:48;24.75;;;16.27;;
9254;SDS011;4663;49.120;9.730;2023-10-19T08:54:16;21.40;;;15.85;;
9254;SDS011;4663;49.120;9.730;2023-10-19T08:56:43;23.83;;;16.25;;
9254;SDS011;4663;49.120;9.730;2023-10-19T08:59:09;22.00;;;16.33;;
9254;SDS011;4663;49.120;9.730;2023-10-19T09:01:40;21.02;;;16.10;;
9254;SDS011;4663;49.120;9.730;2023-10-19T09:04:09;20.95;;;16.30;;
9254;SDS011;4663;49.120;9.730;2023-10-19T09:06:35;20.30;;;15.38;;
9254;SDS011;4663;49.120;9.730;2023-10-19T09:09:10;20.05;;;16.05;;
9254;SDS011;4663;49.120;9.730;2023-10-19T09:11:41;21.52;;;15.98;;
9254;SDS011;4663;49.120;9.730;2023-10-19T09:14:08;20.08;;;15.57;;
9254;SDS011;4663;49.120;9.730;2023-10-19T09:16:33;23.02;;;14.32;;
9254;SDS011;4663;49.120;9.730;2023-10-19T09:18:59;26.63;;;15.75;;
9254;SDS011;4663;49.120;9.730;2023-10-19T09:21:24;24.52;;;15.38;;
9254;SDS011;4663;49.120;9.730;2023-10-19T09:23:50;24.08;;;14.23;;
9254;SDS011;4663;49.120;9.730;2023-10-19T09:26:19;19.40;;;13.95;;
9254;SDS011;4663;49.120;9.730;2023-10-19T09:28:47;19.77;;;14.30;;
9254;SDS011;4663;49.120;9.730;2023-10-19T09:31:13;22.08;;;14.93;;
9254;SDS011;4663;49.120;9.730;2023-10-19T09:33:42;19.17;;;16.05;;
9254;SDS011;4663;49.120;9.730;2023-10-19T09:36:09;15.73;;;11.13;;
9254;SDS011;4663;49.120;9.730;2023-10-19T09:38:50;11.15;;;9.48;;
9254;SDS011;4663;49.120;9.730;2023-10-19T09:41:20;13.90;;;10.20;;
9254;SDS011;4663;49.120;9.730;2023-10-19T09:43:49;11.50;;;9.02;;
9254;SDS011;4663;49.120;9.730;2023-10-19T09:46:20;13.00;;;9.27;;
9254;SDS011;4663;49.120;9.730;2023-10-19T09:48:51;10.82;;;9.00;;
9254;SDS011;4663;49.120;9.730;2023-10-19T09:51:18;10.65;;;8.63;;
9254;SDS011;4663;49.120;9.730;2023-10-19T09:57:08;10.30;;;8.40;;
9254;SDS011;4663;49.120;9.730;2023-10-19T09:59:41;11.68;;;7.55;;
9254;SDS011;4663;49.120;9.730;2023-10-19T10:02:10;7.75;;;6.93;;
9254;SDS011;4663;49.120;9.730;2023-10-19T10:04:40;10.30;;;8.07;;
9254;SDS011;4663;49.120;9.730;2023-10-19T10:07:08;7.90;;;7.10;;
9254;SDS011;4663;49.120;9.730;2023-10-19T10:09:38;14.40;;;7.55;;
9254;SDS011;4663;49.120;9.730;2023-10-19T10:12:29;10.65;;;9.38;;
9254;SDS011;4663;49.120;9.730;2023-10-19T10:15:02;13.23;;;11.10;;
9254;SDS011;4663;49.120;9.730;2023-10-19T10:17:36;12.25;;;9.27;;
9254;SDS011;4663;49.120;9.730;2023-10-19T10:22:42;8.30;;;7.38;;
9254;SDS011;4663;49.120;9.730;2023-10-19T10:25:08;9.32;;;7.22;;
9254;SDS011;4663;49.120;9.730;2023-10-19T10:27:53;8.60;;;7.70;;
9254;SDS011;4663;49.120;9.730;2023-10-19T10:30:19;9.25;;;8.30;;
9254;SDS011;4663;49.120;9.730;2023-10-19T10:32:46;9.18;;;8.30;;
9254;SDS011;4663;49.120;9.730;2023-10-19T10:38:06;7.82;;;7.05;;
9254;SDS011;4663;49.120;9.730;2023-10-19T10:40:42;8.18;;;6.90;;
9254;SDS011;4663;49.120;9.730;2023-10-19T10:43:14;7.90;;;7.07;;
9254;SDS011;4663;49.120;9.730;2023-10-19T10:45:41;9.32;;;7.15;;
9254;SDS011;4663;49.120;9.730;2023-10-19T10:48:16;7.95;;;7.28;;
9254;SDS011;4663;49.120;9.730;2023-10-19T10:50:44;10.32;;;7.95;;
9254;SDS011;4663;49.120;9.730;2023-10-19T10:53:11;10.25;;;7.30;;
9254;SDS011;4663;49.120;9.730;2023-10-19T10:55:37;8.82;;;7.40;;
9254;SDS011;4663;49.120;9.730;2023-10-19T10:58:04;8.23;;;7.43;;
9254;SDS011;4663;49.120;9.730;2023-10-19T11:00:29;8.30;;;7.47;;
9254;SDS011;4663;49.120;9.730;2023-10-19T11:03:04;12.35;;;7.63;;
9254;SDS011;4663;49.120;9.730;2023-10-19T11:05:35;9.98;;;7.57;;
9254;SDS011;4663;49.120;9.730;2023-10-19T11:08:14;9.68;;;7.68;;
9254;SDS011;4663;49.120;9.730;2023-10-19T11:10:46;8.93;;;8.02;;
9254;SDS011;4663;49.120;9.730;2023-10-19T11:13:13;8.85;;;7.95;;
9254;SDS011;4663;49.120;9.730;2023-10-19T11:15:47;8.32;;;7.53;;
9254;SDS011;4663;49.120;9.730;2023-10-19T11:18:27;9.27;;;7.63;;
9254;SDS011;4663;49.120;9.730;2023-10-19T11:21:06;7.82;;;7.03;;
9254;SDS011;4663;49.120;9.730;2023-10-19T11:23:40;8.40;;;7.28;;
9254;SDS011;4663;49.120;9.730;2023-10-19T11:26:07;7.78;;;6.90;;
9254;SDS011;4663;49.120;9.730;2023-10-19T11:28:35;8.40;;;7.07;;
9254;SDS011;4663;49.120;9.730;2023-10-19T11:31:18;7.38;;;6.68;;
9254;SDS011;4663;49.120;9.730;2023-10-19T11:33:45;7.88;;;6.75;;
9254;SDS011;4663;49.120;9.730;2023-10-19T11:36:13;7.10;;;6.40;;
9254;SDS011;4663;49.120;9.730;2023-10-19T11:38:40;7.88;;;7.10;;
9254;SDS011;4663;49.120;9.730;2023-10-19T11:41:07;10.30;;;7.18;;
9254;SDS011;4663;49.120;9.730;2023-10-19T11:43:33;11.02;;;7.18;;
9254;SDS011;4663;49.120;9.730;2023-10-19T11:45:59;7.78;;;6.80;;
9254;SDS011;4663;49.120;9.730;2023-10-19T11:48:25;6.75;;;6.13;;
9254;SDS011;4663;49.120;9.730;2023-10-19T11:50:51;8.85;;;7.50;;
9254;SDS011;4663;49.120;9.730;2023-10-19T11:53:16;6.90;;;6.30;;
9254;SDS011;4663;49.120;9.730;2023-10-19T11:55:42;7.65;;;6.95;;
9254;SDS011;4663;49.120;9.730;2023-10-19T11:58:08;7.32;;;6.50;;
9254;SDS011;4663;49.120;9.730;2023-10-19T12:00:39;8.85;;;7.22;;
9254;SDS011;4663;49.120;9.730;2023-10-19T12:03:04;11.48;;;8.20;;
9254;SDS011;4663;49.120;9.730;2023-10-19T12:05:31;8.32;;;7.53;;
9254;SDS011;4663;49.120;9.730;2023-10-19T12:07:57;8.02;;;7.13;;
9254;SDS011;4663;49.120;9.730;2023-10-19T12:10:22;7.15;;;6.43;;
9254;SDS011;4663;49.120;9.730;2023-10-19T12:13:14;9.10;;;6.25;;
9254;SDS011;4663;49.120;9.730;2023-10-19T12:15:41;6.63;;;5.57;;
9254;SDS011;4663;49.120;9.730;2023-10-19T12:18:06;5.53;;;4.97;;
9254;SDS011;4663;49.120;9.730;2023-10-19T12:20:33;5.80;;;5.10;;
9254;SDS011;4663;49.120;9.730;2023-10-19T12:23:00;5.18;;;4.50;;
9254;SDS011;4663;49.120;9.730;2023-10-19T12:25:26;7.00;;;5.70;;
9254;SDS011;4663;49.120;9.730;2023-10-19T12:28:00;7.85;;;5.30;;
9254;SDS011;4663;49.120;9.730;2023-10-19T12:30:25;6.07;;;5.47;;
9254;SDS011;4663;49.120;9.730;2023-10-19T12:32:56;11.88;;;6.22;;
9254;SDS011;4663;49.120;9.730;2023-10-19T12:35:24;5.85;;;5.18;;
9254;SDS011;4663;49.120;9.730;2023-10-19T12:38:07;6.00;;;4.88;;
9254;SDS011;4663;49.120;9.730;2023-10-19T12:40:40;6.25;;;4.75;;
9254;SDS011;4663;49.120;9.730;2023-10-19T12:43:06;5.75;;;5.25;;
9254;SDS011;4663;49.120;9.730;2023-10-19T12:45:32;6.80;;;4.60;;
9254;SDS011;4663;49.120;9.730;2023-10-19T12:48:02;5.40;;;4.28;;
9254;SDS011;4663;49.120;9.730;2023-10-19T12:50:29;5.47;;;4.95;;
9254;SDS011;4663;49.120;9.730;2023-10-19T12:52:55;8.95;;;5.13;;
9254;SDS011;4663;49.120;9.730;2023-10-19T12:55:21;6.97;;;5.53;;
9254;SDS011;4663;49.120;9.730;2023-10-19T12:57:47;6.43;;;5.00;;
9254;SDS011;4663;49.120;9.730;2023-10-19T13:00:12;6.72;;;5.40;;
9254;SDS011;4663;49.120;9.730;2023-10-19T13:03:03;9.52;;;5.13;;
9254;SDS011;4663;49.120;9.730;2023-10-19T13:05:33;8.38;;;5.20;;
9254;SDS011;4663;49.120;9.730;2023-10-19T13:07:59;9.82;;;5.82;;
9254;SDS011;4663;49.120;9.730;2023-10-19T13:10:29;10.20;;;5.30;;
9254;SDS011;4663;49.120;9.730;2023-10-19T13:13:01;14.45;;;7.88;;
9254;SDS011;4663;49.120;9.730;2023-10-19T13:15:29;5.80;;;5.30;;
9254;SDS011;4663;49.120;9.730;2023-10-19T13:17:59;8.68;;;5.68;;
9254;SDS011;4663;49.120;9.730;2023-10-19T13:20:29;6.40;;;5.50;;
9254;SDS011;4663;49.120;9.730;2023-10-19T13:23:01;8.38;;;5.97;;
9254;SDS011;4663;49.120;9.730;2023-10-19T13:25:28;8.23;;;6.50;;
9254;SDS011;4663;49.120;9.730;2023-10-19T13:28:10;8.07;;;6.40;;
9254;SDS011;4663;49.120;9.730;2023-10-19T13:30:39;6.28;;;5.63;;
9254;SDS011;4663;49.120;9.730;2023-10-19T13:33:06;5.45;;;4.82;;
9254;SDS011;4663;49.120;9.730;2023-10-19T13:35:34;7.68;;;5.25;;
9254;SDS011;4663;49.120;9.730;2023-10-19T13:38:01;5.70;;;5.07;;
9254;SDS011;4663;49.120;9.730;2023-10-19T13:40:27;4.70;;;3.97;;
9254;SDS011;4663;49.120;9.730;2023-10-19T13:42:55;4.78;;;3.92;;
9254;SDS011;4663;49.120;9.730;2023-10-19T13:45:21;6.93;;;3.45;;
9254;SDS011;4663;49.120;9.730;2023-10-19T13:47:46;3.90;;;3.20;;
9254;SDS011;4663;49.120;9.730;2023-10-19T13:50:12;7.22;;;3.35;;
9254;SDS011;4663;49.120;9.730;2023-10-19T13:52:38;4.10;;;3.05;;
9254;SDS011;4663;49.120;9.730;2023-10-19T13:55:04;5.50;;;3.20;;
9254;SDS011;4663;49.120;9.730;2023-10-19T13:57:32;5.85;;;3.20;;
9254;SDS011;4663;49.120;9.730;2023-10-19T13:59:58;4.30;;;3.35;;
9254;SDS011;4663;49.120;9.730;2023-10-19T14:02:23;7.35;;;3.10;;
9254;SDS011;4663;49.120;9.730;2023-10-19T14:04:49;3.45;;;2.92;;
9254;SDS011;4663;49.120;9.730;2023-10-19T14:07:16;6.38;;;3.25;;
9254;SDS011;4663;49.120;9.730;2023-10-19T14:09:42;4.00;;;3.25;;
9254;SDS011;4663;49.120;9.730;2023-10-19T14:12:07;3.45;;;3.13;;
9254;SDS011;4663;49.120;9.730;2023-10-19T14:14:34;6.93;;;3.67;;
9254;SDS011;4663;49.120;9.730;2023-10-19T14:17:00;4.22;;;3.20;;
9254;SDS011;4663;49.120;9.730;2023-10-19T14:19:26;3.85;;;3.50;;
9254;SDS011;4663;49.120;9.730;2023-10-19T14:21:51;5.18;;;3.58;;
9254;SDS011;4663;49.120;9.730;2023-10-19T14:24:17;4.75;;;3.65;;
9254;SDS011;4663;49.120;9.730;2023-10-19T14:26:45;3.78;;;3.47;;
9254;SDS011;4663;49.120;9.730;2023-10-19T14:29:12;5.18;;;4.18;;
9254;SDS011;4663;49.120;9.730;2023-10-19T14:31:38;4.55;;;3.65;;
9254;SDS011;4663;49.120;9.730;2023-10-19T14:34:04;5.80;;;3.70;;
9254;SDS011;4663;49.120;9.730;2023-10-19T14:36:29;7.15;;;4.15;;
9254;SDS011;4663;49.120;9.730;2023-10-19T14:38:54;7.82;;;4.00;;
9254;SDS011;4663;49.120;9.730;2023-10-19T14:41:20;4.00;;;3.63;;
9254;SDS011;4663;49.120;9.730;2023-10-19T14:43:45;7.03;;;4.20;;
9254;SDS011;4663;49.120;9.730;2023-10-19T14:46:11;6.32;;;4.30;;
9254;SDS011;4663;49.120;9.730;2023-10-19T14:48:36;7.78;;;4.10;;
9254;SDS011;4663;49.120;9.730;2023-10-19T14:51:02;11.45;;;5.88;;
9254;SDS011;4663;49.120;9.730;2023-10-19T14:53:27;7.78;;;4.63;;
9254;SDS011;4663;49.120;9.730;2023-10-19T14:55:56;5.63;;;4.25;;
9254;SDS011;4663;49.120;9.730;2023-10-19T14:58:21;6.72;;;4.55;;
9254;SDS011;4663;49.120;9.730;2023-10-19T15:00:47;5.50;;;4.50;;
9254;SDS011;4663;49.120;9.730;2023-10-19T15:03:19;7.32;;;4.75;;
9254;SDS011;4663;49.120;9.730;2023-10-19T15:05:49;16.30;;;7.10;;
9254;SDS011;4663;49.120;9.730;2023-10-19T15:08:17;7.65;;;5.60;;
9254;SDS011;4663;49.120;9.730;2023-10-19T15:10:44;6.75;;;5.05;;
9254;SDS011;4663;49.120;9.730;2023-10-19T15:13:10;10.68;;;5.57;;